Sarny, Ukraine
Current Conditions -  °F | °C
As of 6:00 PM on Monday 26 Jan 2015 (Local Time) from UKLR Reporting Station
Overcast Overcast  
Wind Chill: 28°   Ceiling: 2700
Heat Index: 32°   Visibility: 6mi
Dew Point: 28°   Wind: 4mph
Humidity: 87%   Direction: 310°NW
Pressure: 30.12"   Gusts: NA
Location:  51.33°N, 26.6°E
Report Text: UKLR 261500Z 31002MPS 9999 OVC027 M00/M02 Q1020 3039//24 NOSIG
Loading
Personal Weather Stations






























Interactive Weather Map New forecast layout! Learn more

10-Day Weather Forecast

Advertisements
Track Severe Weather on mobile